LLHA/HFA METAR and TAF weather

Enter ICAO airport designator
Station Type Date Time Source
LLHA METAR 2020/11/27 14:50 UTC NOAA

LLHA 271450Z VRB03KT 9999 FEW040 19/12 Q1017 RMK BKN090


Station Type Date Time Source
LLHA Decoded METAR 2020/11/27 14:50 UTC NOAA

Sde-Haifa Haifa, Israel (LLHA) 32-48N 035-02E 8M
Nov 27, 2020 - 09:50 AM EST / 2020.11.27 1450 UTC
Wind: Variable at 3 MPH (3 KT):0
Visibility: greater than 7 mile(s):0
Sky conditions: mostly clear
Temperature: 66 F (19 C)
Dew Point: 53 F (12 C)
Relative Humidity: 63%
Pressure (altimeter): 30.03 in. Hg (1017 hPa)
ob: LLHA 271450Z VRB03KT 9999 FEW040 19/12 Q1017 RMK BKN090
cycle: 15

Station Type Date Time Source
LLHA TAF 2020/11/27 12:00 UTC NOAA

TAF LLHA 271109Z 2712/2812 13008KT 9999 SCT030
TEMPO 2712/2718 -RA BKN025 PROB30 2800/2806 -RA BKN025 TX21/2712Z TN15/2804Z

Example: see airport list